createdAt,value
2023-01-19T00:02:22.091Z,100334.37
2023-01-19T00:05:28.004Z,100334.37
2023-01-19T00:08:33.496Z,100337.92
2023-01-19T00:11:40.286Z,100341.32
2023-01-19T00:14:46.171Z,100342.68
2023-01-19T00:17:52.581Z,100341.63
2023-01-19T00:21:00.005Z,100343.97
2023-01-19T00:24:06.577Z,100337.33
2023-01-19T00:27:18.963Z,100342.20
2023-01-19T00:30:26.143Z,100360.89
2023-01-19T00:33:32.009Z,100346.09
2023-01-19T00:36:37.977Z,100352.40
2023-01-19T00:39:43.913Z,100350.48
2023-01-19T00:42:51.650Z,100360.14
2023-01-19T00:46:00.353Z,100362.15
2023-01-19T00:49:05.640Z,100361.09
2023-01-19T00:52:12.204Z,100359.73
2023-01-19T00:55:17.904Z,100364.83
2023-01-19T00:58:23.150Z,100380.42
2023-01-19T01:01:46.234Z,100367.33
2023-01-19T01:04:36.673Z,100365.81
2023-01-19T01:07:43.765Z,100370.91
2023-01-19T01:10:48.765Z,100367.13
2023-01-19T01:13:54.143Z,100372.72
2023-01-19T01:17:02.238Z,100373.21
2023-01-19T01:20:08.505Z,100386.80
2023-01-19T01:23:13.809Z,100386.66
2023-01-19T01:26:20.381Z,100387.41
2023-01-19T01:29:25.879Z,100390.36
2023-01-19T01:32:31.331Z,100388.84
2023-01-19T01:35:37.180Z,100396.14
2023-01-19T01:38:42.073Z,100394.77
2023-01-19T01:41:47.460Z,100399.87
2023-01-19T01:45:06.577Z,100401.53
2023-01-19T01:48:25.412Z,100408.97
2023-01-19T01:51:44.801Z,100397.53
2023-01-19T01:54:49.601Z,100400.55
2023-01-19T01:57:58.001Z,100398.70
2023-01-19T02:01:22.169Z,100393.41
2023-01-19T02:04:27.813Z,100399.48
2023-01-19T02:07:57.727Z,100411.15
2023-01-19T02:11:21.211Z,100407.38
2023-01-19T02:14:28.785Z,100402.23
2023-01-19T02:17:34.662Z,100408.46
2023-01-19T02:20:42.034Z,100411.62
2023-01-19T02:23:59.221Z,100401.92
2023-01-19T02:27:04.920Z,100416.14
2023-01-19T02:30:10.254Z,100414.06
2023-01-19T02:33:17.539Z,100405.00
2023-01-19T02:36:25.250Z,100407.66
2023-01-19T02:39:32.689Z,100412.88
2023-01-19T02:42:42.389Z,100404.23
2023-01-19T02:45:48.565Z,100405.21
2023-01-19T02:48:54.172Z,100414.86
2023-01-19T02:51:59.789Z,100403.95
2023-01-19T02:55:29.249Z,100411.08
2023-01-19T02:58:44.483Z,100395.31
2023-01-19T03:02:24.096Z,100399.38
2023-01-19T03:05:55.765Z,100407.16
2023-01-19T03:09:07.862Z,100402.73
2023-01-19T03:12:20.573Z,100406.55
2023-01-19T03:15:35.026Z,100402.28
2023-01-19T03:18:42.205Z,100401.41
2023-01-19T03:21:50.769Z,100398.50
2023-01-19T03:25:00.187Z,100403.59
2023-01-19T03:28:08.620Z,100398.50
2023-01-19T03:31:18.394Z,100392.58
2023-01-19T03:34:25.488Z,100399.86
2023-01-19T03:37:31.384Z,100402.57
2023-01-19T03:40:36.191Z,100419.16
2023-01-19T03:43:41.716Z,100415.08
2023-01-19T03:46:49.690Z,100416.06
2023-01-19T03:49:54.714Z,100418.44
2023-01-19T03:53:01.481Z,100406.85
2023-01-19T03:56:08.613Z,100423.67
2023-01-19T03:59:14.865Z,100419.22
2023-01-19T04:02:20.026Z,100431.67
2023-01-19T04:05:25.840Z,100418.52
2023-01-19T04:08:32.007Z,100423.81
2023-01-19T04:11:38.145Z,100425.71
2023-01-19T04:14:43.397Z,100432.36
2023-01-19T04:17:48.563Z,100437.91
2023-01-19T04:20:54.434Z,100435.47
2023-01-19T04:24:01.871Z,100438.09
2023-01-19T04:27:08.486Z,100440.81
2023-01-19T04:30:14.752Z,100447.45
2023-01-19T04:33:20.790Z,100442.73
2023-01-19T04:36:26.811Z,100452.82
2023-01-19T04:39:31.850Z,100456.61
2023-01-19T04:42:39.555Z,100451.89
2023-01-19T04:45:46.370Z,100453.79
2023-01-19T04:48:53.570Z,100455.72
2023-01-19T04:52:00.834Z,100464.02
2023-01-19T04:55:05.449Z,100467.27
2023-01-19T04:58:11.672Z,100457.52
2023-01-19T05:01:19.225Z,100464.27
2023-01-19T05:04:23.966Z,100474.27
2023-01-19T05:07:29.858Z,100474.41
2023-01-19T05:10:36.575Z,100472.71
2023-01-19T05:13:42.428Z,100474.19
2023-01-19T05:16:50.715Z,100477.13
2023-01-19T05:19:56.997Z,100478.41
2023-01-19T05:23:06.398Z,100489.56
2023-01-19T05:26:13.749Z,100482.23
2023-01-19T05:29:18.741Z,100479.42
2023-01-19T05:32:25.860Z,100482.63
2023-01-19T05:35:36.341Z,100482.14
2023-01-19T05:38:38.109Z,100474.14
2023-01-19T05:41:43.469Z,100477.58
2023-01-19T05:44:49.395Z,100491.88
2023-01-19T05:47:54.879Z,100481.85
2023-01-19T05:51:01.000Z,100491.36
2023-01-19T05:54:06.218Z,100489.71
2023-01-19T05:57:11.561Z,100483.45
2023-01-19T06:00:17.893Z,100489.42
2023-01-19T06:03:23.002Z,100495.43
2023-01-19T06:06:29.634Z,100492.95
2023-01-19T06:09:36.393Z,100494.16
2023-01-19T06:12:42.370Z,100505.57
2023-01-19T06:15:47.797Z,100488.71
2023-01-19T06:18:56.608Z,100495.21
2023-01-19T06:22:04.178Z,100497.48
2023-01-19T06:25:11.240Z,100506.56
2023-01-19T06:28:21.161Z,100498.75
2023-01-19T06:31:29.096Z,100513.55
2023-01-19T06:34:37.168Z,100522.09
2023-01-19T06:37:46.665Z,100524.51
2023-01-19T06:40:53.665Z,100521.00
2023-01-19T06:44:14.468Z,100527.80
2023-01-19T06:47:20.977Z,100532.08
2023-01-19T06:50:27.655Z,100539.30
2023-01-19T06:53:37.816Z,100531.56
2023-01-19T06:56:43.592Z,100534.27
2023-01-19T06:59:52.490Z,100528.72
2023-01-19T07:02:58.338Z,100548.19
2023-01-19T07:06:09.204Z,100554.54
2023-01-19T07:09:18.573Z,100551.25
2023-01-19T07:12:29.282Z,100554.59
2023-01-19T07:15:36.156Z,100548.20
2023-01-19T07:18:42.714Z,100547.52
2023-01-19T07:21:49.617Z,100541.44
2023-01-19T07:24:57.658Z,100550.81
2023-01-19T07:28:02.492Z,100546.95
2023-01-19T07:31:09.287Z,100547.34
2023-01-19T07:34:16.286Z,100542.69
2023-01-19T07:38:04.962Z,100546.31
2023-01-19T07:41:26.144Z,100547.93
2023-01-19T07:44:35.695Z,100547.81
2023-01-19T07:50:54.898Z,100557.05
2023-01-19T07:54:02.127Z,100557.89
2023-01-19T07:57:11.027Z,100556.63
2023-01-19T08:00:16.465Z,100550.62
2023-01-19T08:03:22.138Z,100549.02
2023-01-19T08:06:37.592Z,100543.13
2023-01-19T08:09:44.955Z,100552.75
2023-01-19T08:12:51.480Z,100561.36
2023-01-19T08:15:59.418Z,100544.74
2023-01-19T08:19:05.253Z,100551.64
2023-01-19T08:22:13.811Z,100548.28
2023-01-19T08:25:21.167Z,100546.86
2023-01-19T08:28:30.869Z,100551.03
2023-01-19T08:31:40.241Z,100556.73
2023-01-19T08:34:46.981Z,100545.88
2023-01-19T08:37:54.654Z,100556.86
2023-01-19T08:41:04.893Z,100555.22
2023-01-19T08:44:12.167Z,100555.61
2023-01-19T08:47:19.876Z,100556.39
2023-01-19T08:50:26.602Z,100549.61
2023-01-19T08:53:32.874Z,100550.16
2023-01-19T08:56:41.363Z,100554.83
2023-01-19T08:59:45.978Z,100555.87
2023-01-19T09:02:52.502Z,100561.05
2023-01-19T09:05:59.141Z,100551.73
2023-01-19T09:09:05.936Z,100555.53
2023-01-19T09:12:10.712Z,100550.92
2023-01-19T09:15:17.511Z,100547.22
2023-01-19T09:18:25.818Z,100556.11
2023-01-19T09:21:31.446Z,100554.10
2023-01-19T09:24:38.708Z,100548.95
2023-01-19T09:27:49.806Z,100546.78
2023-01-19T09:30:58.744Z,100550.22
2023-01-19T09:34:05.993Z,100545.80
2023-01-19T09:37:12.423Z,100545.45
2023-01-19T09:40:22.510Z,100539.83
2023-01-19T09:43:49.824Z,100532.30
2023-01-19T09:46:58.050Z,100542.37
2023-01-19T09:50:14.741Z,100548.72
2023-01-19T09:53:30.649Z,100534.69
2023-01-19T09:56:35.892Z,100544.94
2023-01-19T09:59:46.332Z,100550.06
2023-01-19T10:03:01.601Z,100541.53
2023-01-19T10:06:19.664Z,100551.43
2023-01-19T10:09:49.315Z,100543.74
2023-01-19T10:13:40.339Z,100546.30
2023-01-19T10:17:07.548Z,100529.67
2023-01-19T10:20:16.377Z,100528.11
2023-01-19T10:23:29.747Z,100517.77
2023-01-19T10:26:53.099Z,100511.73
2023-01-19T10:29:59.329Z,100511.84
2023-01-19T10:33:04.373Z,100509.70
2023-01-19T10:36:11.656Z,100503.76
2023-01-19T10:39:20.263Z,100495.09
2023-01-19T10:42:29.542Z,100500.47
2023-01-19T10:45:43.430Z,100493.89
2023-01-19T10:48:58.115Z,100488.95
2023-01-19T10:52:08.632Z,100486.77
2023-01-19T10:55:19.669Z,100487.13
2023-01-19T10:58:44.005Z,100490.06
2023-01-19T11:01:51.568Z,100477.77
2023-01-19T11:05:01.799Z,100478.75
2023-01-19T11:08:07.392Z,100473.31
2023-01-19T11:11:16.696Z,100467.83
2023-01-19T11:14:29.766Z,100460.11
2023-01-19T11:17:37.183Z,100459.42
2023-01-19T11:20:48.141Z,100457.85
2023-01-19T11:24:06.185Z,100457.48
2023-01-19T11:27:14.187Z,100453.00
2023-01-19T11:30:38.639Z,100440.29
2023-01-19T11:33:59.340Z,100458.12
2023-01-19T11:37:31.309Z,100457.07
2023-01-19T11:40:38.465Z,100448.70
2023-01-19T11:43:49.242Z,100449.95
2023-01-19T11:46:52.356Z,100442.78
2023-01-19T11:50:01.747Z,100446.38
2023-01-19T11:53:16.420Z,100432.12
2023-01-19T11:56:31.327Z,100429.74
2023-01-19T11:59:36.439Z,100428.88
2023-01-19T12:02:58.254Z,100436.92
2023-01-19T12:06:06.576Z,100443.45
2023-01-19T12:09:15.849Z,100438.30
2023-01-19T12:12:40.749Z,100438.66
2023-01-19T12:15:57.282Z,100434.05
2023-01-19T12:19:20.258Z,100431.80
2023-01-19T12:22:30.310Z,100433.17
2023-01-19T12:25:40.980Z,100430.44
2023-01-19T12:28:50.982Z,100428.20
2023-01-19T12:31:58.576Z,100426.69
2023-01-19T12:35:06.770Z,100429.12
2023-01-19T12:38:13.033Z,100431.54
2023-01-19T12:41:42.476Z,100426.92
2023-01-19T12:44:48.049Z,100428.99
2023-01-19T12:47:55.436Z,100438.09
2023-01-19T12:51:02.389Z,100435.34
2023-01-19T12:54:11.090Z,100431.56
2023-01-19T12:57:21.626Z,100436.22
2023-01-19T13:00:41.630Z,100432.94
2023-01-19T13:04:18.857Z,100438.95
2023-01-19T13:07:28.155Z,100445.20
2023-01-19T13:11:19.141Z,100441.47
2023-01-19T13:14:50.509Z,100438.11
2023-01-19T13:18:09.771Z,100441.11
2023-01-19T13:21:23.180Z,100441.73
2023-01-19T13:24:30.781Z,100446.04
2023-01-19T13:27:36.652Z,100447.78
2023-01-19T13:30:43.613Z,100456.75
2023-01-19T13:34:05.785Z,100453.83
2023-01-19T13:37:13.358Z,100446.48
2023-01-19T13:40:21.661Z,100450.48
2023-01-19T13:43:41.333Z,100452.45
2023-01-19T13:46:47.147Z,100450.13
2023-01-19T13:49:55.737Z,100441.83
2023-01-19T13:53:04.004Z,100450.58
2023-01-19T13:56:35.650Z,100451.67
2023-01-19T13:59:43.367Z,100454.82
2023-01-19T14:02:48.704Z,100451.44
2023-01-19T14:05:57.635Z,100446.17
2023-01-19T14:09:24.392Z,100462.50
2023-01-19T14:12:32.911Z,100460.33
2023-01-19T14:15:38.774Z,100465.86
2023-01-19T14:18:47.468Z,100474.09
2023-01-19T14:21:54.647Z,100471.19
2023-01-19T14:25:01.034Z,100466.92
2023-01-19T14:28:07.028Z,100466.77
2023-01-19T14:31:13.608Z,100480.30
2023-01-19T14:34:19.201Z,100473.44
2023-01-19T14:37:38.552Z,100481.85
2023-01-19T14:40:44.419Z,100479.28
2023-01-19T14:43:52.351Z,100477.06
2023-01-19T14:47:02.160Z,100469.55
2023-01-19T14:50:07.853Z,100463.37
2023-01-19T14:53:22.959Z,100476.20
2023-01-19T14:56:43.991Z,100460.98
2023-01-19T14:59:51.721Z,100460.13
2023-01-19T15:03:02.799Z,100466.59
2023-01-19T15:06:11.373Z,100464.91
2023-01-19T15:09:15.737Z,100468.66
2023-01-19T15:12:21.905Z,100473.77
2023-01-19T15:15:32.593Z,100482.31
2023-01-19T15:18:40.382Z,100486.92
2023-01-19T15:21:47.586Z,100473.07
2023-01-19T15:24:53.103Z,100472.05
2023-01-19T15:27:58.957Z,100486.22
2023-01-19T15:31:04.875Z,100475.45
2023-01-19T15:34:11.219Z,100485.52
2023-01-19T15:37:16.383Z,100482.26
2023-01-19T15:40:23.535Z,100491.16
2023-01-19T15:43:29.511Z,100485.50
2023-01-19T15:46:38.011Z,100488.73
2023-01-19T15:49:42.839Z,100496.74
2023-01-19T15:52:48.705Z,100502.38
2023-01-19T15:55:53.840Z,100512.94
2023-01-19T15:58:58.696Z,100517.05
2023-01-19T16:02:04.464Z,100519.44
2023-01-19T16:05:10.553Z,100519.08
2023-01-19T16:08:18.296Z,100521.97
2023-01-19T16:11:27.014Z,100514.98
2023-01-19T16:14:33.323Z,100532.53
2023-01-19T16:17:39.428Z,100533.73
2023-01-19T16:20:46.056Z,100552.81
2023-01-19T16:23:50.969Z,100541.22
2023-01-19T16:26:59.386Z,100537.09
2023-01-19T16:30:10.811Z,100551.41
2023-01-19T16:33:19.377Z,100542.88
2023-01-19T16:36:43.881Z,100551.69
2023-01-19T16:39:52.047Z,100544.16
2023-01-19T16:42:57.485Z,100547.53
2023-01-19T16:46:17.489Z,100551.91
2023-01-19T16:49:28.680Z,100558.02
2023-01-19T16:52:33.778Z,100547.75
2023-01-19T16:55:38.785Z,100554.56
2023-01-19T16:58:47.467Z,100544.47
2023-01-19T17:01:53.436Z,100544.79
2023-01-19T17:04:59.401Z,100553.64
2023-01-19T17:08:05.474Z,100545.40
2023-01-19T17:11:11.287Z,100555.11
2023-01-19T17:14:19.002Z,100568.41
2023-01-19T17:17:24.604Z,100561.19
2023-01-19T17:20:30.582Z,100560.47
2023-01-19T17:23:35.557Z,100561.28
2023-01-19T17:26:43.006Z,100571.46
2023-01-19T17:29:49.931Z,100556.23
2023-01-19T17:32:56.517Z,100560.39
2023-01-19T17:36:02.294Z,100567.52
2023-01-19T17:39:09.593Z,100563.57
2023-01-19T17:42:15.860Z,100567.11
2023-01-19T17:45:21.914Z,100560.39
2023-01-19T17:48:28.726Z,100585.39
2023-01-19T17:51:36.124Z,100576.48
2023-01-19T17:54:42.410Z,100575.42
2023-01-19T17:57:49.363Z,100587.28
2023-01-19T18:00:56.455Z,100594.91
2023-01-19T18:04:03.353Z,100589.05
2023-01-19T18:07:08.534Z,100583.91
2023-01-19T18:10:13.555Z,100594.25
2023-01-19T18:13:18.842Z,100598.64
2023-01-19T18:16:26.057Z,100595.73
2023-01-19T18:19:30.949Z,100615.83
2023-01-19T18:22:36.149Z,100602.14
2023-01-19T18:25:42.227Z,100594.11
2023-01-19T18:28:47.107Z,100612.63
2023-01-19T18:31:53.276Z,100614.66
2023-01-19T18:35:00.448Z,100615.61
2023-01-19T18:38:05.980Z,100613.69
2023-01-19T18:41:28.979Z,100622.80
2023-01-19T18:44:35.613Z,100630.41
2023-01-19T18:47:42.270Z,100627.64
2023-01-19T18:50:47.735Z,100631.66
2023-01-19T18:53:53.825Z,100626.66
2023-01-19T18:57:02.044Z,100621.33
2023-01-19T19:00:08.829Z,100622.12
2023-01-19T19:03:18.358Z,100626.99
2023-01-19T19:06:26.819Z,100622.86
2023-01-19T19:09:33.755Z,100633.67
2023-01-19T19:12:39.591Z,100630.03
2023-01-19T19:15:45.905Z,100630.83
2023-01-19T19:18:51.172Z,100639.63
2023-01-19T19:21:58.962Z,100642.00
2023-01-19T19:25:07.289Z,100636.22
2023-01-19T19:28:12.716Z,100640.94
2023-01-19T19:31:26.733Z,100642.16
2023-01-19T19:34:31.308Z,100652.17
2023-01-19T19:37:37.269Z,100649.45
2023-01-19T19:40:42.581Z,100642.16
2023-01-19T19:43:48.487Z,100639.73
2023-01-19T19:46:54.801Z,100647.17
2023-01-19T19:50:03.001Z,100645.12
2023-01-19T19:53:08.996Z,100648.62
2023-01-19T19:56:17.120Z,100640.09
2023-01-19T19:59:23.133Z,100647.18
2023-01-19T20:02:28.930Z,100639.31
2023-01-19T20:05:36.180Z,100645.39
2023-01-19T20:08:44.227Z,100649.84
2023-01-19T20:11:50.573Z,100641.46
2023-01-19T20:14:57.782Z,100639.61
2023-01-19T20:18:04.103Z,100639.46
2023-01-19T20:21:13.688Z,100648.64
2023-01-19T20:24:23.972Z,100646.41
2023-01-19T20:27:31.619Z,100634.66
2023-01-19T20:30:37.302Z,100638.55
2023-01-19T20:33:43.665Z,100642.77
2023-01-19T20:36:54.594Z,100649.91
2023-01-19T20:40:00.301Z,100650.44
2023-01-19T20:43:06.667Z,100658.85
2023-01-19T20:46:12.280Z,100651.36
2023-01-19T20:49:18.214Z,100656.08
2023-01-19T20:52:24.624Z,100645.49
2023-01-19T20:55:30.838Z,100646.13
2023-01-19T20:58:37.751Z,100658.80
2023-01-19T21:01:43.693Z,100653.66
2023-01-19T21:04:52.431Z,100654.58
2023-01-19T21:07:58.164Z,100653.99
2023-01-19T21:11:03.625Z,100651.28
2023-01-19T21:14:09.080Z,100653.80
2023-01-19T21:17:15.808Z,100660.73
2023-01-19T21:20:24.320Z,100664.09
2023-01-19T21:23:30.010Z,100663.36
2023-01-19T21:26:39.305Z,100688.34
2023-01-19T21:29:47.172Z,100667.09
2023-01-19T21:32:55.516Z,100673.54
2023-01-19T21:36:12.243Z,100663.93
2023-01-19T21:39:19.719Z,100677.08
2023-01-19T21:42:25.584Z,100682.08
2023-01-19T21:45:32.309Z,100682.88
2023-01-19T21:48:37.743Z,100686.86
2023-01-19T21:51:45.567Z,100687.38
2023-01-19T21:54:52.451Z,100679.12
2023-01-19T21:57:58.932Z,100676.70
2023-01-19T22:01:06.017Z,100668.83
2023-01-19T22:04:12.078Z,100665.88
2023-01-19T22:07:16.761Z,100666.39
2023-01-19T22:10:25.024Z,100662.22
2023-01-19T22:13:31.397Z,100663.09
2023-01-19T22:16:37.740Z,100665.66
2023-01-19T22:19:44.394Z,100670.37
2023-01-19T22:22:50.156Z,100677.44
2023-01-19T22:25:55.385Z,100680.40
2023-01-19T22:29:02.182Z,100672.88
2023-01-19T22:32:07.882Z,100688.24
2023-01-19T22:35:13.100Z,100681.59
2023-01-19T22:38:19.569Z,100683.81
2023-01-19T22:41:38.533Z,100680.51
2023-01-19T22:44:44.285Z,100696.31
2023-01-19T22:47:50.805Z,100689.01
2023-01-19T22:50:58.377Z,100694.82
2023-01-19T22:54:04.018Z,100679.60
2023-01-19T22:57:09.224Z,100693.53
2023-01-19T23:00:15.315Z,100675.59
2023-01-19T23:03:21.811Z,100704.50
2023-01-19T23:06:30.416Z,100703.49
2023-01-19T23:09:36.175Z,100711.92
2023-01-19T23:12:41.680Z,100718.64
2023-01-19T23:15:48.488Z,100723.93
2023-01-19T23:18:54.843Z,100712.58
2023-01-19T23:22:00.802Z,100719.82
2023-01-19T23:25:06.031Z,100720.23
2023-01-19T23:28:11.533Z,100718.53
2023-01-19T23:31:18.350Z,100722.75
2023-01-19T23:34:25.314Z,100711.15
2023-01-19T23:37:30.974Z,100705.16
2023-01-19T23:40:36.538Z,100731.45
2023-01-19T23:43:42.638Z,100718.98
2023-01-19T23:46:47.809Z,100728.87
2023-01-19T23:49:53.825Z,100718.15
2023-01-19T23:53:01.265Z,100716.27
2023-01-19T23:56:07.642Z,100718.36
2023-01-19T23:59:18.324Z,100714.53
